See Champion — 9LU2454 — position and weather

sailwx.info

Track history (hours):
 
Tides and Currents Weather Stations Pressure Air Temp Water Temp Dewpoint Dewpoint Depression Visibility Wind Speed Wind Dir Waves Ship Positions

See Champion

Last reported at 2018-Apr-19 11:05 UTC. Time now 2018-Apr-23 19:36 UTC.
Position N 31°49' E 031°14'.

Length 59 m.

Type: Tug. MMSI: 667001651.

Date/timePositionNaut miles runAvg speedWind from/ knotsBaromVisibWave heightAir tempDewpointWater temp
2018-Apr-19 11:05N 31°49' E 031°14'50 4.1
2018-Apr-18 23:00N 31°31' E 032°09'3 4.8
2018-Apr-18 22:28N 31°30' E 032°06'2 4.5
2018-Apr-18 22:00N 31°29' E 032°09'4 8.5
2018-Apr-18 21:30N 31°26' E 032°12'4 8.5
2018-Apr-18 21:01N 31°24' E 032°16'4 8.4
2018-Apr-18 20:30N 31°21' E 032°20'8 0.9
2018-Apr-18 11:57N 31°14' E 032°18'0 0.0
2018-Apr-18 11:30N 31°14' E 032°18'0 0.0
2018-Apr-18 08:26N 31°14' E 032°18'0 0.0
2018-Apr-18 08:00N 31°14' E 032°18'1 0.6
2018-Apr-18 06:10N 31°15' E 032°18'0 0.0
2018-Apr-18 05:58N 31°15' E 032°18'0 0.0
2018-Apr-18 05:30N 31°15' E 032°18'0 0.0
2018-Apr-18 05:00N 31°15' E 032°18'0 0.0
2018-Apr-18 04:20N 31°15' E 032°18'0 0.0
2018-Apr-18 02:56N 31°15' E 032°18'0 0.0
2018-Apr-18 02:30N 31°15' E 032°18'0 0.0
2018-Apr-18 02:00N 31°15' E 032°18'0 0.0
2018-Apr-17 19:02N 31°15' E 032°18'0 0.0
2018-Apr-17 19:00N 31°15' E 032°18'0 0.0
2018-Apr-17 17:42N 31°15' E 032°18'0 0.0
2018-Apr-17 17:30N 31°15' E 032°18'0 0.0
2018-Apr-17 17:00N 31°15' E 032°18'0 0.0
2018-Apr-17 16:30N 31°15' E 032°18'0 0.0
2018-Apr-17 16:00N 31°15' E 032°18'0 0.0
2018-Apr-17 15:30N 31°15' E 032°18'0 0.0
2018-Apr-17 15:00N 31°15' E 032°18'0 0.0
2018-Apr-17 14:30N 31°15' E 032°18'0 0.0
2018-Apr-16 11:47N 31°15' E 032°18'0 0.0
2018-Apr-16 11:20N 31°15' E 032°18'0 0.0
2018-Apr-16 10:59N 31°15' E 032°18'  
Track history (hours):
 
Tides and Currents Weather Stations Pressure Air Temp Water Temp Dewpoint Dewpoint Depression Visibility Wind Speed Wind Dir Waves Ship Positions

See Champion

Last reported at 2018-Apr-19 11:05 UTC. Time now 2018-Apr-23 19:36 UTC.
Position N 31°49' E 031°14'.

Length 59 m.

Type: Tug. MMSI: 667001651.

Date/timePositionNaut miles runAvg speedWind from/ knotsBaromVisibWave heightAir tempDewpointWater temp
2018-Apr-19 11:05N 31°49' E 031°14'50 4.1
2018-Apr-18 23:00N 31°31' E 032°09'3 4.8
2018-Apr-18 22:28N 31°30' E 032°06'2 4.5
2018-Apr-18 22:00N 31°29' E 032°09'4 8.5
2018-Apr-18 21:30N 31°26' E 032°12'4 8.5
2018-Apr-18 21:01N 31°24' E 032°16'4 8.4
2018-Apr-18 20:30N 31°21' E 032°20'8 0.9
2018-Apr-18 11:57N 31°14' E 032°18'0 0.0
2018-Apr-18 11:30N 31°14' E 032°18'0 0.0
2018-Apr-18 08:26N 31°14' E 032°18'0 0.0
2018-Apr-18 08:00N 31°14' E 032°18'1 0.6
2018-Apr-18 06:10N 31°15' E 032°18'0 0.0
2018-Apr-18 05:58N 31°15' E 032°18'0 0.0
2018-Apr-18 05:30N 31°15' E 032°18'0 0.0
2018-Apr-18 05:00N 31°15' E 032°18'0 0.0
2018-Apr-18 04:20N 31°15' E 032°18'0 0.0
2018-Apr-18 02:56N 31°15' E 032°18'0 0.0
2018-Apr-18 02:30N 31°15' E 032°18'0 0.0
2018-Apr-18 02:00N 31°15' E 032°18'0 0.0
2018-Apr-17 19:02N 31°15' E 032°18'0 0.0
2018-Apr-17 19:00N 31°15' E 032°18'0 0.0
2018-Apr-17 17:42N 31°15' E 032°18'0 0.0
2018-Apr-17 17:30N 31°15' E 032°18'0 0.0
2018-Apr-17 17:00N 31°15' E 032°18'0 0.0
2018-Apr-17 16:30N 31°15' E 032°18'0 0.0
2018-Apr-17 16:00N 31°15' E 032°18'0 0.0
2018-Apr-17 15:30N 31°15' E 032°18'0 0.0
2018-Apr-17 15:00N 31°15' E 032°18'0 0.0
2018-Apr-17 14:30N 31°15' E 032°18'0 0.0
2018-Apr-16 11:47N 31°15' E 032°18'0 0.0
2018-Apr-16 11:20N 31°15' E 032°18'0 0.0
2018-Apr-16 10:59N 31°15' E 032°18'  

Dump ship's entire track history